sensor_id;sensor_type;location;lat;lon;timestamp;P1;durP1;ratioP1;P2;durP2;ratioP2
10469;SDS011;5282;47.052;15.458;2023-04-24T00:01:18;4.50;;;4.40;;
10469;SDS011;5282;47.052;15.458;2023-04-24T00:03:45;4.80;;;4.50;;
10469;SDS011;5282;47.052;15.458;2023-04-24T00:06:12;4.90;;;4.70;;
10469;SDS011;5282;47.052;15.458;2023-04-24T00:08:39;4.93;;;4.73;;
10469;SDS011;5282;47.052;15.458;2023-04-24T00:11:06;4.77;;;4.50;;
10469;SDS011;5282;47.052;15.458;2023-04-24T00:13:34;5.07;;;4.87;;
10469;SDS011;5282;47.052;15.458;2023-04-24T00:16:01;5.40;;;5.20;;
10469;SDS011;5282;47.052;15.458;2023-04-24T00:18:30;5.30;;;5.10;;
10469;SDS011;5282;47.052;15.458;2023-04-24T00:20:59;4.70;;;4.60;;
10469;SDS011;5282;47.052;15.458;2023-04-24T00:23:26;5.13;;;4.73;;
10469;SDS011;5282;47.052;15.458;2023-04-24T00:25:52;4.80;;;4.60;;
10469;SDS011;5282;47.052;15.458;2023-04-24T00:28:19;4.60;;;4.47;;
10469;SDS011;5282;47.052;15.458;2023-04-24T00:30:46;4.77;;;4.67;;
10469;SDS011;5282;47.052;15.458;2023-04-24T00:33:13;4.53;;;4.33;;
10469;SDS011;5282;47.052;15.458;2023-04-24T00:35:42;4.70;;;4.50;;
10469;SDS011;5282;47.052;15.458;2023-04-24T00:38:08;3.97;;;3.87;;
10469;SDS011;5282;47.052;15.458;2023-04-24T00:40:35;4.23;;;4.13;;
10469;SDS011;5282;47.052;15.458;2023-04-24T00:43:02;4.20;;;3.93;;
10469;SDS011;5282;47.052;15.458;2023-04-24T00:45:29;4.03;;;3.93;;
10469;SDS011;5282;47.052;15.458;2023-04-24T00:47:57;4.13;;;4.03;;
10469;SDS011;5282;47.052;15.458;2023-04-24T00:50:24;4.03;;;3.83;;
10469;SDS011;5282;47.052;15.458;2023-04-24T00:52:54;4.03;;;3.80;;
10469;SDS011;5282;47.052;15.458;2023-04-24T00:55:21;4.33;;;4.13;;
10469;SDS011;5282;47.052;15.458;2023-04-24T00:57:47;4.50;;;4.30;;
10469;SDS011;5282;47.052;15.458;2023-04-24T01:00:16;4.23;;;4.13;;
10469;SDS011;5282;47.052;15.458;2023-04-24T01:02:44;4.40;;;4.10;;
10469;SDS011;5282;47.052;15.458;2023-04-24T01:05:12;4.17;;;4.07;;
10469;SDS011;5282;47.052;15.458;2023-04-24T01:07:40;4.43;;;4.13;;
10469;SDS011;5282;47.052;15.458;2023-04-24T01:10:12;4.03;;;3.93;;
10469;SDS011;5282;47.052;15.458;2023-04-24T01:12:40;4.23;;;4.10;;
10469;SDS011;5282;47.052;15.458;2023-04-24T01:15:07;4.90;;;4.70;;
10469;SDS011;5282;47.052;15.458;2023-04-24T01:17:35;4.20;;;4.00;;
10469;SDS011;5282;47.052;15.458;2023-04-24T01:20:04;4.10;;;4.00;;
10469;SDS011;5282;47.052;15.458;2023-04-24T01:22:33;5.03;;;4.73;;
10469;SDS011;5282;47.052;15.458;2023-04-24T01:25:01;4.87;;;4.70;;
10469;SDS011;5282;47.052;15.458;2023-04-24T01:27:27;4.70;;;4.50;;
10469;SDS011;5282;47.052;15.458;2023-04-24T01:29:54;5.00;;;4.80;;
10469;SDS011;5282;47.052;15.458;2023-04-24T01:32:22;4.90;;;4.60;;
10469;SDS011;5282;47.052;15.458;2023-04-24T01:34:49;5.20;;;5.00;;
10469;SDS011;5282;47.052;15.458;2023-04-24T01:37:17;5.23;;;5.03;;
10469;SDS011;5282;47.052;15.458;2023-04-24T01:39:46;5.03;;;4.77;;
10469;SDS011;5282;47.052;15.458;2023-04-24T01:42:13;5.30;;;5.10;;
10469;SDS011;5282;47.052;15.458;2023-04-24T01:44:40;5.23;;;4.83;;
10469;SDS011;5282;47.052;15.458;2023-04-24T01:47:08;5.37;;;5.17;;
10469;SDS011;5282;47.052;15.458;2023-04-24T01:49:35;4.83;;;4.63;;
10469;SDS011;5282;47.052;15.458;2023-04-24T01:52:04;5.37;;;5.17;;
10469;SDS011;5282;47.052;15.458;2023-04-24T01:54:31;5.30;;;5.10;;
10469;SDS011;5282;47.052;15.458;2023-04-24T01:56:59;5.27;;;5.07;;
10469;SDS011;5282;47.052;15.458;2023-04-24T01:59:27;5.10;;;4.90;;
10469;SDS011;5282;47.052;15.458;2023-04-24T02:01:55;5.07;;;4.87;;
10469;SDS011;5282;47.052;15.458;2023-04-24T02:04:22;5.33;;;4.93;;
10469;SDS011;5282;47.052;15.458;2023-04-24T02:06:48;5.43;;;5.13;;
10469;SDS011;5282;47.052;15.458;2023-04-24T02:09:16;5.50;;;5.03;;
10469;SDS011;5282;47.052;15.458;2023-04-24T02:11:42;4.97;;;4.77;;
10469;SDS011;5282;47.052;15.458;2023-04-24T02:14:11;4.93;;;4.63;;
10469;SDS011;5282;47.052;15.458;2023-04-24T02:16:38;4.83;;;4.53;;
10469;SDS011;5282;47.052;15.458;2023-04-24T02:19:10;5.23;;;4.87;;
10469;SDS011;5282;47.052;15.458;2023-04-24T02:21:40;5.73;;;5.40;;
10469;SDS011;5282;47.052;15.458;2023-04-24T02:24:07;5.43;;;5.13;;
10469;SDS011;5282;47.052;15.458;2023-04-24T02:26:34;5.20;;;4.90;;
10469;SDS011;5282;47.052;15.458;2023-04-24T02:29:01;5.40;;;5.20;;
10469;SDS011;5282;47.052;15.458;2023-04-24T02:31:29;5.07;;;4.87;;
10469;SDS011;5282;47.052;15.458;2023-04-24T02:33:56;5.50;;;5.23;;
10469;SDS011;5282;47.052;15.458;2023-04-24T02:36:23;5.50;;;5.30;;
10469;SDS011;5282;47.052;15.458;2023-04-24T02:38:50;5.57;;;5.37;;
10469;SDS011;5282;47.052;15.458;2023-04-24T02:41:17;6.17;;;5.87;;
10469;SDS011;5282;47.052;15.458;2023-04-24T02:43:45;6.13;;;5.73;;
10469;SDS011;5282;47.052;15.458;2023-04-24T02:46:13;6.77;;;6.40;;
10469;SDS011;5282;47.052;15.458;2023-04-24T02:48:41;6.73;;;6.43;;
10469;SDS011;5282;47.052;15.458;2023-04-24T02:51:08;6.50;;;6.10;;
10469;SDS011;5282;47.052;15.458;2023-04-24T02:53:35;7.00;;;6.40;;
10469;SDS011;5282;47.052;15.458;2023-04-24T02:56:02;6.30;;;6.00;;
10469;SDS011;5282;47.052;15.458;2023-04-24T02:58:29;7.10;;;6.70;;
10469;SDS011;5282;47.052;15.458;2023-04-24T03:00:56;6.37;;;5.97;;
10469;SDS011;5282;47.052;15.458;2023-04-24T03:03:23;5.87;;;5.63;;
10469;SDS011;5282;47.052;15.458;2023-04-24T03:05:52;5.93;;;5.63;;
10469;SDS011;5282;47.052;15.458;2023-04-24T03:08:20;5.77;;;5.47;;
10469;SDS011;5282;47.052;15.458;2023-04-24T03:10:50;6.03;;;5.53;;
10469;SDS011;5282;47.052;15.458;2023-04-24T03:13:17;5.67;;;5.37;;
10469;SDS011;5282;47.052;15.458;2023-04-24T03:15:46;6.00;;;5.70;;
10469;SDS011;5282;47.052;15.458;2023-04-24T03:18:14;6.50;;;6.07;;
10469;SDS011;5282;47.052;15.458;2023-04-24T03:20:52;6.00;;;5.60;;
10469;SDS011;5282;47.052;15.458;2023-04-24T03:23:21;6.00;;;5.50;;
10469;SDS011;5282;47.052;15.458;2023-04-24T03:25:50;5.67;;;5.47;;
10469;SDS011;5282;47.052;15.458;2023-04-24T03:28:24;5.33;;;5.13;;
10469;SDS011;5282;47.052;15.458;2023-04-24T03:30:51;5.90;;;5.60;;
10469;SDS011;5282;47.052;15.458;2023-04-24T03:33:18;5.80;;;5.50;;
10469;SDS011;5282;47.052;15.458;2023-04-24T03:35:46;5.80;;;5.50;;
10469;SDS011;5282;47.052;15.458;2023-04-24T03:38:15;6.00;;;5.60;;
10469;SDS011;5282;47.052;15.458;2023-04-24T03:40:42;6.43;;;6.13;;
10469;SDS011;5282;47.052;15.458;2023-04-24T03:43:09;6.10;;;5.80;;
10469;SDS011;5282;47.052;15.458;2023-04-24T03:45:37;7.00;;;6.40;;
10469;SDS011;5282;47.052;15.458;2023-04-24T03:48:04;6.87;;;6.50;;
10469;SDS011;5282;47.052;15.458;2023-04-24T03:50:31;5.90;;;5.70;;
10469;SDS011;5282;47.052;15.458;2023-04-24T03:52:58;6.67;;;6.27;;
10469;SDS011;5282;47.052;15.458;2023-04-24T03:55:26;6.83;;;6.43;;
10469;SDS011;5282;47.052;15.458;2023-04-24T03:57:53;6.20;;;5.90;;
10469;SDS011;5282;47.052;15.458;2023-04-24T04:00:20;6.40;;;5.90;;
10469;SDS011;5282;47.052;15.458;2023-04-24T04:02:47;5.90;;;5.50;;
10469;SDS011;5282;47.052;15.458;2023-04-24T04:05:14;7.47;;;6.77;;
10469;SDS011;5282;47.052;15.458;2023-04-24T04:07:41;6.40;;;6.10;;
10469;SDS011;5282;47.052;15.458;2023-04-24T04:10:08;6.50;;;6.00;;
10469;SDS011;5282;47.052;15.458;2023-04-24T04:12:36;6.17;;;5.87;;
10469;SDS011;5282;47.052;15.458;2023-04-24T04:15:03;6.63;;;6.23;;
10469;SDS011;5282;47.052;15.458;2023-04-24T04:17:32;6.03;;;5.73;;
10469;SDS011;5282;47.052;15.458;2023-04-24T04:19:59;6.33;;;6.00;;
10469;SDS011;5282;47.052;15.458;2023-04-24T04:22:26;6.10;;;5.80;;
10469;SDS011;5282;47.052;15.458;2023-04-24T04:24:53;7.40;;;6.23;;
10469;SDS011;5282;47.052;15.458;2023-04-24T04:27:20;6.50;;;5.90;;
10469;SDS011;5282;47.052;15.458;2023-04-24T04:29:48;5.97;;;5.77;;
10469;SDS011;5282;47.052;15.458;2023-04-24T04:32:16;6.73;;;6.33;;
10469;SDS011;5282;47.052;15.458;2023-04-24T04:34:43;7.23;;;6.80;;
10469;SDS011;5282;47.052;15.458;2023-04-24T04:37:10;6.50;;;6.10;;
10469;SDS011;5282;47.052;15.458;2023-04-24T04:39:38;6.93;;;6.47;;
10469;SDS011;5282;47.052;15.458;2023-04-24T04:42:05;6.70;;;6.30;;
10469;SDS011;5282;47.052;15.458;2023-04-24T04:44:31;6.53;;;6.27;;
10469;SDS011;5282;47.052;15.458;2023-04-24T04:47:02;7.03;;;6.33;;
10469;SDS011;5282;47.052;15.458;2023-04-24T04:49:30;7.17;;;6.60;;
10469;SDS011;5282;47.052;15.458;2023-04-24T04:51:57;6.30;;;5.77;;
10469;SDS011;5282;47.052;15.458;2023-04-24T04:54:24;6.93;;;6.60;;
10469;SDS011;5282;47.052;15.458;2023-04-24T04:56:51;7.67;;;6.90;;
10469;SDS011;5282;47.052;15.458;2023-04-24T04:59:18;7.27;;;6.77;;
10469;SDS011;5282;47.052;15.458;2023-04-24T05:01:45;6.90;;;6.50;;
10469;SDS011;5282;47.052;15.458;2023-04-24T05:04:13;7.30;;;6.80;;
10469;SDS011;5282;47.052;15.458;2023-04-24T05:06:40;8.43;;;7.70;;
10469;SDS011;5282;47.052;15.458;2023-04-24T05:09:07;9.37;;;8.47;;
10469;SDS011;5282;47.052;15.458;2023-04-24T05:11:34;8.73;;;8.00;;
10469;SDS011;5282;47.052;15.458;2023-04-24T05:14:01;9.27;;;8.43;;
10469;SDS011;5282;47.052;15.458;2023-04-24T05:16:28;8.60;;;7.97;;
10469;SDS011;5282;47.052;15.458;2023-04-24T05:18:55;8.80;;;8.10;;
10469;SDS011;5282;47.052;15.458;2023-04-24T05:21:24;10.67;;;8.20;;
10469;SDS011;5282;47.052;15.458;2023-04-24T05:23:52;8.70;;;7.87;;
10469;SDS011;5282;47.052;15.458;2023-04-24T05:26:19;8.60;;;7.90;;
10469;SDS011;5282;47.052;15.458;2023-04-24T05:28:45;8.43;;;7.73;;
10469;SDS011;5282;47.052;15.458;2023-04-24T05:31:13;8.50;;;7.67;;
10469;SDS011;5282;47.052;15.458;2023-04-24T05:33:40;9.07;;;8.10;;
10469;SDS011;5282;47.052;15.458;2023-04-24T05:36:07;8.17;;;7.63;;
10469;SDS011;5282;47.052;15.458;2023-04-24T05:38:35;9.10;;;8.40;;
10469;SDS011;5282;47.052;15.458;2023-04-24T05:41:02;9.50;;;8.63;;
10469;SDS011;5282;47.052;15.458;2023-04-24T05:43:29;9.37;;;8.57;;
10469;SDS011;5282;47.052;15.458;2023-04-24T05:45:56;10.17;;;9.23;;
10469;SDS011;5282;47.052;15.458;2023-04-24T05:48:23;8.80;;;8.20;;
10469;SDS011;5282;47.052;15.458;2023-04-24T05:50:49;10.03;;;9.30;;
10469;SDS011;5282;47.052;15.458;2023-04-24T05:53:17;10.27;;;9.40;;
10469;SDS011;5282;47.052;15.458;2023-04-24T05:55:47;11.70;;;9.57;;
10469;SDS011;5282;47.052;15.458;2023-04-24T05:58:14;9.90;;;9.20;;
10469;SDS011;5282;47.052;15.458;2023-04-24T06:00:41;11.67;;;10.50;;
10469;SDS011;5282;47.052;15.458;2023-04-24T06:03:09;11.57;;;10.57;;
10469;SDS011;5282;47.052;15.458;2023-04-24T06:05:36;11.37;;;10.53;;
10469;SDS011;5282;47.052;15.458;2023-04-24T06:08:03;11.43;;;10.23;;
10469;SDS011;5282;47.052;15.458;2023-04-24T06:10:30;10.93;;;10.03;;
10469;SDS011;5282;47.052;15.458;2023-04-24T06:12:58;11.00;;;9.90;;
10469;SDS011;5282;47.052;15.458;2023-04-24T06:15:27;11.63;;;10.63;;
10469;SDS011;5282;47.052;15.458;2023-04-24T06:17:55;11.20;;;10.20;;
10469;SDS011;5282;47.052;15.458;2023-04-24T06:20:22;10.70;;;9.90;;
10469;SDS011;5282;47.052;15.458;2023-04-24T06:22:50;10.73;;;9.80;;
10469;SDS011;5282;47.052;15.458;2023-04-24T06:25:17;10.60;;;9.60;;
10469;SDS011;5282;47.052;15.458;2023-04-24T06:27:44;9.10;;;8.13;;
10469;SDS011;5282;47.052;15.458;2023-04-24T06:30:13;8.53;;;7.97;;
10469;SDS011;5282;47.052;15.458;2023-04-24T06:32:40;9.47;;;8.87;;
10469;SDS011;5282;47.052;15.458;2023-04-24T06:35:07;9.23;;;8.27;;
10469;SDS011;5282;47.052;15.458;2023-04-24T06:37:35;9.97;;;8.97;;
10469;SDS011;5282;47.052;15.458;2023-04-24T06:40:02;8.67;;;7.90;;
10469;SDS011;5282;47.052;15.458;2023-04-24T06:42:29;10.17;;;9.27;;
10469;SDS011;5282;47.052;15.458;2023-04-24T06:44:56;9.03;;;8.23;;
10469;SDS011;5282;47.052;15.458;2023-04-24T06:47:25;9.40;;;8.60;;
10469;SDS011;5282;47.052;15.458;2023-04-24T06:49:52;9.67;;;8.83;;
10469;SDS011;5282;47.052;15.458;2023-04-24T06:52:20;10.17;;;8.83;;
10469;SDS011;5282;47.052;15.458;2023-04-24T06:54:47;10.27;;;8.37;;
10469;SDS011;5282;47.052;15.458;2023-04-24T06:57:14;9.40;;;8.70;;
10469;SDS011;5282;47.052;15.458;2023-04-24T06:59:42;9.97;;;9.23;;
10469;SDS011;5282;47.052;15.458;2023-04-24T07:02:09;9.43;;;8.53;;
10469;SDS011;5282;47.052;15.458;2023-04-24T07:04:37;9.37;;;8.37;;
10469;SDS011;5282;47.052;15.458;2023-04-24T07:07:04;9.33;;;8.50;;
10469;SDS011;5282;47.052;15.458;2023-04-24T07:09:31;9.33;;;8.67;;
10469;SDS011;5282;47.052;15.458;2023-04-24T07:12:00;9.30;;;8.77;;
10469;SDS011;5282;47.052;15.458;2023-04-24T07:14:29;9.57;;;8.73;;
10469;SDS011;5282;47.052;15.458;2023-04-24T07:16:56;12.27;;;11.17;;
10469;SDS011;5282;47.052;15.458;2023-04-24T07:19:23;12.80;;;9.53;;
10469;SDS011;5282;47.052;15.458;2023-04-24T07:21:51;11.37;;;10.43;;
10469;SDS011;5282;47.052;15.458;2023-04-24T07:24:21;10.50;;;9.77;;
10469;SDS011;5282;47.052;15.458;2023-04-24T07:26:47;10.53;;;9.60;;
10469;SDS011;5282;47.052;15.458;2023-04-24T07:29:14;10.73;;;9.93;;
10469;SDS011;5282;47.052;15.458;2023-04-24T07:31:41;10.47;;;9.63;;
10469;SDS011;5282;47.052;15.458;2023-04-24T07:34:08;11.33;;;10.17;;
10469;SDS011;5282;47.052;15.458;2023-04-24T07:36:35;10.50;;;9.73;;
10469;SDS011;5282;47.052;15.458;2023-04-24T07:39:05;12.07;;;11.07;;
10469;SDS011;5282;47.052;15.458;2023-04-24T07:41:32;11.63;;;10.73;;
10469;SDS011;5282;47.052;15.458;2023-04-24T07:43:59;12.37;;;11.27;;
10469;SDS011;5282;47.052;15.458;2023-04-24T07:46:26;12.93;;;11.73;;
10469;SDS011;5282;47.052;15.458;2023-04-24T07:48:55;13.83;;;11.57;;
10469;SDS011;5282;47.052;15.458;2023-04-24T07:51:24;12.63;;;11.30;;
10469;SDS011;5282;47.052;15.458;2023-04-24T07:53:52;12.67;;;11.67;;
10469;SDS011;5282;47.052;15.458;2023-04-24T07:56:21;12.77;;;11.60;;
10469;SDS011;5282;47.052;15.458;2023-04-24T07:58:48;14.30;;;12.67;;
10469;SDS011;5282;47.052;15.458;2023-04-24T08:01:15;14.27;;;11.23;;
10469;SDS011;5282;47.052;15.458;2023-04-24T08:03:41;12.73;;;11.57;;
10469;SDS011;5282;47.052;15.458;2023-04-24T08:06:08;12.43;;;11.33;;
10469;SDS011;5282;47.052;15.458;2023-04-24T08:08:35;13.77;;;11.97;;
10469;SDS011;5282;47.052;15.458;2023-04-24T08:11:02;13.60;;;12.33;;
10469;SDS011;5282;47.052;15.458;2023-04-24T08:13:33;13.60;;;12.10;;
10469;SDS011;5282;47.052;15.458;2023-04-24T08:16:00;13.10;;;11.83;;
10469;SDS011;5282;47.052;15.458;2023-04-24T08:18:27;13.17;;;11.97;;
10469;SDS011;5282;47.052;15.458;2023-04-24T08:20:54;13.87;;;12.70;;
10469;SDS011;5282;47.052;15.458;2023-04-24T08:23:21;13.50;;;11.77;;
10469;SDS011;5282;47.052;15.458;2023-04-24T08:25:48;14.33;;;12.27;;
10469;SDS011;5282;47.052;15.458;2023-04-24T08:28:15;12.97;;;11.93;;
10469;SDS011;5282;47.052;15.458;2023-04-24T08:30:46;13.00;;;11.80;;
10469;SDS011;5282;47.052;15.458;2023-04-24T08:33:13;13.83;;;12.43;;
10469;SDS011;5282;47.052;15.458;2023-04-24T08:35:40;14.50;;;13.00;;
10469;SDS011;5282;47.052;15.458;2023-04-24T08:38:07;13.83;;;12.60;;
10469;SDS011;5282;47.052;15.458;2023-04-24T08:40:34;14.07;;;12.87;;
10469;SDS011;5282;47.052;15.458;2023-04-24T08:43:03;14.20;;;12.80;;
10469;SDS011;5282;47.052;15.458;2023-04-24T08:45:30;20.03;;;13.90;;
10469;SDS011;5282;47.052;15.458;2023-04-24T08:48:00;14.73;;;13.40;;
10469;SDS011;5282;47.052;15.458;2023-04-24T08:50:28;14.80;;;13.33;;
10469;SDS011;5282;47.052;15.458;2023-04-24T08:52:55;16.27;;;14.30;;
10469;SDS011;5282;47.052;15.458;2023-04-24T08:55:23;15.10;;;13.53;;
10469;SDS011;5282;47.052;15.458;2023-04-24T08:57:52;15.23;;;13.77;;
10469;SDS011;5282;47.052;15.458;2023-04-24T09:00:20;16.03;;;14.43;;
10469;SDS011;5282;47.052;15.458;2023-04-24T09:02:48;14.17;;;12.77;;
10469;SDS011;5282;47.052;15.458;2023-04-24T09:05:17;15.33;;;13.80;;
10469;SDS011;5282;47.052;15.458;2023-04-24T09:07:45;16.20;;;14.23;;
10469;SDS011;5282;47.052;15.458;2023-04-24T09:10:16;16.17;;;14.17;;
10469;SDS011;5282;47.052;15.458;2023-04-24T09:12:43;15.40;;;14.00;;
10469;SDS011;5282;47.052;15.458;2023-04-24T09:15:10;14.10;;;12.70;;
10469;SDS011;5282;47.052;15.458;2023-04-24T09:17:38;13.40;;;12.20;;
10469;SDS011;5282;47.052;15.458;2023-04-24T09:20:05;14.00;;;12.53;;
10469;SDS011;5282;47.052;15.458;2023-04-24T09:22:34;17.30;;;13.03;;
10469;SDS011;5282;47.052;15.458;2023-04-24T09:25:02;10.73;;;9.63;;
10469;SDS011;5282;47.052;15.458;2023-04-24T09:27:31;8.17;;;7.60;;
10469;SDS011;5282;47.052;15.458;2023-04-24T09:29:58;5.83;;;5.53;;
10469;SDS011;5282;47.052;15.458;2023-04-24T09:32:26;5.87;;;5.47;;
10469;SDS011;5282;47.052;15.458;2023-04-24T09:35:08;5.57;;;5.10;;
10469;SDS011;5282;47.052;15.458;2023-04-24T09:37:39;5.27;;;5.07;;
10469;SDS011;5282;47.052;15.458;2023-04-24T09:40:11;5.03;;;4.83;;
10469;SDS011;5282;47.052;15.458;2023-04-24T09:42:40;5.00;;;4.70;;
10469;SDS011;5282;47.052;15.458;2023-04-24T09:45:09;4.90;;;4.57;;
10469;SDS011;5282;47.052;15.458;2023-04-24T09:47:37;3.60;;;3.50;;
10469;SDS011;5282;47.052;15.458;2023-04-24T09:50:14;4.03;;;3.83;;
10469;SDS011;5282;47.052;15.458;2023-04-24T09:52:47;3.90;;;3.70;;
10469;SDS011;5282;47.052;15.458;2023-04-24T09:55:24;3.83;;;3.60;;
10469;SDS011;5282;47.052;15.458;2023-04-24T09:57:52;3.23;;;3.13;;
10469;SDS011;5282;47.052;15.458;2023-04-24T10:00:23;3.17;;;2.97;;
10469;SDS011;5282;47.052;15.458;2023-04-24T10:02:56;2.80;;;2.70;;
10469;SDS011;5282;47.052;15.458;2023-04-24T10:05:24;2.43;;;2.33;;
10469;SDS011;5282;47.052;15.458;2023-04-24T10:07:57;3.27;;;2.90;;
10469;SDS011;5282;47.052;15.458;2023-04-24T10:10:26;2.60;;;2.50;;
10469;SDS011;5282;47.052;15.458;2023-04-24T10:12:54;2.50;;;2.40;;
10469;SDS011;5282;47.052;15.458;2023-04-24T10:15:21;1.90;;;1.80;;
10469;SDS011;5282;47.052;15.458;2023-04-24T10:17:48;1.97;;;1.90;;
10469;SDS011;5282;47.052;15.458;2023-04-24T10:20:19;1.90;;;1.80;;
10469;SDS011;5282;47.052;15.458;2023-04-24T10:22:48;2.00;;;1.90;;
10469;SDS011;5282;47.052;15.458;2023-04-24T10:25:18;2.20;;;2.10;;
10469;SDS011;5282;47.052;15.458;2023-04-24T10:27:47;2.20;;;2.10;;
10469;SDS011;5282;47.052;15.458;2023-04-24T10:30:15;2.10;;;2.00;;
10469;SDS011;5282;47.052;15.458;2023-04-24T10:32:43;2.17;;;2.07;;
10469;SDS011;5282;47.052;15.458;2023-04-24T10:35:13;2.40;;;2.30;;
10469;SDS011;5282;47.052;15.458;2023-04-24T10:37:43;2.30;;;2.20;;
10469;SDS011;5282;47.052;15.458;2023-04-24T10:40:16;2.10;;;2.00;;
10469;SDS011;5282;47.052;15.458;2023-04-24T10:42:48;2.20;;;2.10;;
10469;SDS011;5282;47.052;15.458;2023-04-24T10:45:18;2.17;;;2.10;;
10469;SDS011;5282;47.052;15.458;2023-04-24T10:47:59;2.00;;;2.00;;
10469;SDS011;5282;47.052;15.458;2023-04-24T10:50:29;2.20;;;2.03;;
10469;SDS011;5282;47.052;15.458;2023-04-24T10:53:11;2.20;;;2.00;;
10469;SDS011;5282;47.052;15.458;2023-04-24T10:55:41;2.23;;;2.13;;
10469;SDS011;5282;47.052;15.458;2023-04-24T10:58:11;2.40;;;2.30;;
10469;SDS011;5282;47.052;15.458;2023-04-24T11:00:40;2.50;;;2.30;;
10469;SDS011;5282;47.052;15.458;2023-04-24T11:03:09;2.50;;;2.40;;
10469;SDS011;5282;47.052;15.458;2023-04-24T11:05:50;2.03;;;2.00;;
10469;SDS011;5282;47.052;15.458;2023-04-24T11:08:22;1.80;;;1.80;;
10469;SDS011;5282;47.052;15.458;2023-04-24T11:10:55;1.53;;;1.53;;
10469;SDS011;5282;47.052;15.458;2023-04-24T11:13:25;1.83;;;1.60;;
10469;SDS011;5282;47.052;15.458;2023-04-24T11:16:12;2.00;;;1.77;;
10469;SDS011;5282;47.052;15.458;2023-04-24T11:18:41;1.73;;;1.67;;
10469;SDS011;5282;47.052;15.458;2023-04-24T11:21:11;1.83;;;1.73;;
10469;SDS011;5282;47.052;15.458;2023-04-24T11:23:39;1.80;;;1.70;;
10469;SDS011;5282;47.052;15.458;2023-04-24T11:26:09;1.80;;;1.70;;
10469;SDS011;5282;47.052;15.458;2023-04-24T11:28:44;2.00;;;1.80;;
10469;SDS011;5282;47.052;15.458;2023-04-24T11:34:07;1.70;;;1.70;;
10469;SDS011;5282;47.052;15.458;2023-04-24T11:36:35;1.33;;;1.30;;
10469;SDS011;5282;47.052;15.458;2023-04-24T11:39:03;1.23;;;1.23;;
10469;SDS011;5282;47.052;15.458;2023-04-24T11:41:30;1.90;;;1.40;;
10469;SDS011;5282;47.052;15.458;2023-04-24T11:43:59;2.40;;;1.37;;
10469;SDS011;5282;47.052;15.458;2023-04-24T11:46:27;1.30;;;1.20;;
10469;SDS011;5282;47.052;15.458;2023-04-24T11:48:55;1.30;;;1.30;;
10469;SDS011;5282;47.052;15.458;2023-04-24T11:51:23;1.90;;;1.80;;
10469;SDS011;5282;47.052;15.458;2023-04-24T11:53:50;2.13;;;2.03;;
10469;SDS011;5282;47.052;15.458;2023-04-24T11:56:17;1.30;;;1.30;;
10469;SDS011;5282;47.052;15.458;2023-04-24T11:58:48;1.60;;;1.07;;
10469;SDS011;5282;47.052;15.458;2023-04-24T12:01:16;2.83;;;2.37;;
10469;SDS011;5282;47.052;15.458;2023-04-24T12:03:46;2.40;;;1.37;;
10469;SDS011;5282;47.052;15.458;2023-04-24T12:06:16;1.93;;;1.17;;
10469;SDS011;5282;47.052;15.458;2023-04-24T12:08:45;3.00;;;1.30;;
10469;SDS011;5282;47.052;15.458;2023-04-24T12:11:17;0.80;;;0.80;;
10469;SDS011;5282;47.052;15.458;2023-04-24T12:13:44;2.13;;;1.10;;
10469;SDS011;5282;47.052;15.458;2023-04-24T12:16:12;0.90;;;0.90;;
10469;SDS011;5282;47.052;15.458;2023-04-24T12:18:44;1.90;;;1.60;;
10469;SDS011;5282;47.052;15.458;2023-04-24T12:21:15;1.90;;;1.00;;
10469;SDS011;5282;47.052;15.458;2023-04-24T12:23:42;1.20;;;0.97;;
10469;SDS011;5282;47.052;15.458;2023-04-24T12:26:10;1.63;;;0.90;;
10469;SDS011;5282;47.052;15.458;2023-04-24T12:28:38;2.03;;;1.10;;
10469;SDS011;5282;47.052;15.458;2023-04-24T12:31:06;1.90;;;0.90;;
10469;SDS011;5282;47.052;15.458;2023-04-24T12:33:34;1.13;;;1.03;;
10469;SDS011;5282;47.052;15.458;2023-04-24T12:36:03;1.53;;;1.00;;
10469;SDS011;5282;47.052;15.458;2023-04-24T12:38:30;1.10;;;1.00;;
10469;SDS011;5282;47.052;15.458;2023-04-24T12:41:05;2.30;;;1.03;;
10469;SDS011;5282;47.052;15.458;2023-04-24T12:43:33;0.90;;;0.90;;
10469;SDS011;5282;47.052;15.458;2023-04-24T12:46:01;2.47;;;1.00;;
10469;SDS011;5282;47.052;15.458;2023-04-24T12:48:28;2.97;;;1.00;;
10469;SDS011;5282;47.052;15.458;2023-04-24T12:50:56;1.10;;;0.90;;
10469;SDS011;5282;47.052;15.458;2023-04-24T12:53:28;1.63;;;0.90;;
10469;SDS011;5282;47.052;15.458;2023-04-24T12:55:56;0.70;;;0.70;;
10469;SDS011;5282;47.052;15.458;2023-04-24T12:58:23;0.80;;;0.80;;
10469;SDS011;5282;47.052;15.458;2023-04-24T13:00:51;2.03;;;0.70;;
10469;SDS011;5282;47.052;15.458;2023-04-24T13:03:20;1.30;;;0.73;;
10469;SDS011;5282;47.052;15.458;2023-04-24T13:05:49;2.17;;;0.60;;
10469;SDS011;5282;47.052;15.458;2023-04-24T13:08:16;0.77;;;0.50;;
10469;SDS011;5282;47.052;15.458;2023-04-24T13:10:45;0.73;;;0.60;;
10469;SDS011;5282;47.052;15.458;2023-04-24T13:13:13;0.37;;;0.37;;
10469;SDS011;5282;47.052;15.458;2023-04-24T13:15:40;1.13;;;0.40;;
10469;SDS011;5282;47.052;15.458;2023-04-24T13:18:07;1.23;;;0.30;;
10469;SDS011;5282;47.052;15.458;2023-04-24T13:20:34;0.40;;;0.40;;
10469;SDS011;5282;47.052;15.458;2023-04-24T13:23:01;0.80;;;0.80;;
10469;SDS011;5282;47.052;15.458;2023-04-24T13:25:30;0.37;;;0.37;;
10469;SDS011;5282;47.052;15.458;2023-04-24T13:28:02;0.30;;;0.30;;
10469;SDS011;5282;47.052;15.458;2023-04-24T13:30:29;0.30;;;0.30;;
10469;SDS011;5282;47.052;15.458;2023-04-24T13:32:56;1.17;;;0.90;;
10469;SDS011;5282;47.052;15.458;2023-04-24T13:35:22;1.80;;;1.80;;
10469;SDS011;5282;47.052;15.458;2023-04-24T13:37:49;0.70;;;0.70;;
10469;SDS011;5282;47.052;15.458;2023-04-24T13:40:16;0.97;;;0.70;;
10469;SDS011;5282;47.052;15.458;2023-04-24T13:42:43;0.57;;;0.57;;
10469;SDS011;5282;47.052;15.458;2023-04-24T13:45:12;0.83;;;0.50;;
10469;SDS011;5282;47.052;15.458;2023-04-24T13:47:39;2.80;;;0.70;;
10469;SDS011;5282;47.052;15.458;2023-04-24T13:50:07;1.70;;;1.13;;
10469;SDS011;5282;47.052;15.458;2023-04-24T13:52:35;0.80;;;0.80;;
10469;SDS011;5282;47.052;15.458;2023-04-24T13:55:01;0.70;;;0.70;;
10469;SDS011;5282;47.052;15.458;2023-04-24T13:57:28;0.90;;;0.90;;
10469;SDS011;5282;47.052;15.458;2023-04-24T13:59:56;0.70;;;0.70;;
10469;SDS011;5282;47.052;15.458;2023-04-24T14:02:28;0.70;;;0.70;;
10469;SDS011;5282;47.052;15.458;2023-04-24T14:04:57;0.80;;;0.80;;
10469;SDS011;5282;47.052;15.458;2023-04-24T14:07:23;1.37;;;0.60;;
10469;SDS011;5282;47.052;15.458;2023-04-24T14:09:50;0.60;;;0.60;;
10469;SDS011;5282;47.052;15.458;2023-04-24T14:12:17;0.83;;;0.60;;
10469;SDS011;5282;47.052;15.458;2023-04-24T14:14:48;0.97;;;0.97;;
10469;SDS011;5282;47.052;15.458;2023-04-24T14:17:15;1.13;;;1.00;;
10469;SDS011;5282;47.052;15.458;2023-04-24T14:19:43;2.17;;;1.30;;
10469;SDS011;5282;47.052;15.458;2023-04-24T14:22:11;1.43;;;0.90;;
10469;SDS011;5282;47.052;15.458;2023-04-24T14:24:37;2.67;;;0.93;;
10469;SDS011;5282;47.052;15.458;2023-04-24T14:27:04;1.03;;;0.90;;
10469;SDS011;5282;47.052;15.458;2023-04-24T14:29:31;0.87;;;0.87;;
10469;SDS011;5282;47.052;15.458;2023-04-24T14:31:58;1.37;;;1.13;;
10469;SDS011;5282;47.052;15.458;2023-04-24T14:34:25;1.00;;;1.00;;
10469;SDS011;5282;47.052;15.458;2023-04-24T14:36:53;0.97;;;0.97;;
10469;SDS011;5282;47.052;15.458;2023-04-24T14:39:20;1.70;;;1.37;;
10469;SDS011;5282;47.052;15.458;2023-04-24T14:41:47;1.57;;;1.13;;
10469;SDS011;5282;47.052;15.458;2023-04-24T14:44:14;1.07;;;1.00;;
10469;SDS011;5282;47.052;15.458;2023-04-24T14:46:41;2.07;;;1.20;;
10469;SDS011;5282;47.052;15.458;2023-04-24T14:49:08;1.03;;;1.03;;
10469;SDS011;5282;47.052;15.458;2023-04-24T14:51:36;0.90;;;0.90;;